Time;durP1;ratioP1;P1;durP2;ratioP2;P2;SDS_P1;SDS_P2;PMS_P1;PMS_P2;Temp;Humidity;BMP_temperature;BMP_pressure;BME280_temperature;BME280_humidity;BME280_pressure;Samples;Min_cycle;Max_cycle;Signal;HPM_P1;HPM_P2
2021/07/16 04:32:14;;;;;;;9.90;8.20;;;15.00;99.90;;;;;;5311732;23;20485;-80
2021/07/16 04:34:41;;;;;;;18.20;7.30;;;15.10;99.90;;;;;;4954433;28;20444;-81
2021/07/16 04:37:07;;;;;;;9.90;8.90;;;15.10;99.90;;;;;;4948078;29;20293;-80
2021/07/16 04:39:34;;;;;;;9.37;6.80;;;15.10;99.90;;;;;;4937691;29;20417;-80
2021/07/16 04:42:00;;;;;;;11.10;7.90;;;15.20;99.90;;;;;;4938347;29;20620;-80
2021/07/16 04:44:25;;;;;;;9.23;6.90;;;15.20;99.90;;;;;;4938769;29;20453;-78
2021/07/16 04:46:51;;;;;;;10.53;8.43;;;15.20;99.90;;;;;;4938102;29;20423;-80
2021/07/16 04:49:17;;;;;;;8.50;7.73;;;15.20;99.90;;;;;;4936992;29;20641;-80
2021/07/16 04:51:43;;;;;;;10.50;7.93;;;15.20;99.90;;;;;;4938310;29;20212;-80
2021/07/16 04:54:10;;;;;;;9.40;8.40;;;15.20;99.90;;;;;;4937825;29;20906;-80
2021/07/16 04:56:35;;;;;;;12.67;8.63;;;15.20;99.90;;;;;;4939461;29;20438;-81
2021/07/16 04:59:02;;;;;;;15.00;8.97;;;15.20;99.90;;;;;;4938699;29;20448;-80
2021/07/16 05:01:28;;;;;;;14.30;9.07;;;15.20;99.90;;;;;;4937376;29;20221;-78
2021/07/16 05:03:54;;;;;;;10.43;8.43;;;15.30;99.90;;;;;;4936939;29;20437;-78
2021/07/16 05:06:21;;;;;;;9.17;7.40;;;15.30;99.90;;;;;;4936763;29;20174;-78
2021/07/16 05:08:46;;;;;;;11.50;8.10;;;15.40;99.90;;;;;;4936790;29;20913;-78
2021/07/16 05:11:14;;;;;;;8.93;8.00;;;15.60;99.90;;;;;;4937456;29;20480;-78
2021/07/16 05:13:40;;;;;;;10.80;7.60;;;15.60;99.90;;;;;;4948671;29;20192;-78
2021/07/16 05:16:07;;;;;;;9.73;8.80;;;15.70;99.90;;;;;;4949508;29;20555;-78
2021/07/16 05:18:34;;;;;;;8.23;7.40;;;15.90;99.90;;;;;;4949549;29;20492;-78
2021/07/16 05:21:00;;;;;;;20.17;8.10;;;16.00;99.90;;;;;;4949829;29;20445;-78
2021/07/16 05:23:26;;;;;;;9.70;8.80;;;16.10;99.90;;;;;;4946665;29;21053;-78
2021/07/16 05:25:52;;;;;;;12.90;9.53;;;16.20;99.90;;;;;;4948975;29;20437;-78
2021/07/16 05:28:19;;;;;;;11.93;9.50;;;16.20;99.90;;;;;;4949889;29;20421;-78
2021/07/16 05:30:45;;;;;;;9.20;8.27;;;16.20;99.90;;;;;;4949653;29;20433;-78
2021/07/16 05:33:11;;;;;;;13.63;9.93;;;16.30;99.90;;;;;;4939018;29;20437;-78
2021/07/16 05:35:37;;;;;;;14.53;9.63;;;16.20;99.90;;;;;;4937613;29;20424;-78
2021/07/16 05:38:03;;;;;;;11.53;10.30;;;16.40;99.90;;;;;;4937449;29;20181;-78
2021/07/16 05:40:29;;;;;;;12.90;10.00;;;16.40;99.90;;;;;;4937325;29;20189;-78
2021/07/16 05:42:55;;;;;;;10.10;8.57;;;16.50;99.90;;;;;;4937496;29;20471;-78
2021/07/16 05:45:20;;;;;;;11.60;10.40;;;16.50;99.90;;;;;;4937539;29;20185;-78
2021/07/16 05:47:46;;;;;;;11.90;9.97;;;16.60;99.90;;;;;;4936872;29;20184;-77
2021/07/16 05:50:12;;;;;;;12.77;10.50;;;16.60;99.90;;;;;;4936661;29;20237;-78
2021/07/16 05:52:38;;;;;;;13.70;10.63;;;16.70;99.90;;;;;;4936728;29;20201;-78
2021/07/16 05:55:04;;;;;;;10.47;9.47;;;16.80;99.90;;;;;;4937265;29;20428;-77
2021/07/16 05:57:33;;;;;;;13.20;10.90;;;16.90;99.90;;;;;;4936774;29;20260;-78
2021/07/16 05:59:59;;;;;;;13.33;10.90;;;17.10;99.90;;;;;;4936403;29;20425;-78
2021/07/16 06:02:24;;;;;;;11.80;10.60;;;17.10;99.90;;;;;;4936109;29;20549;-77
2021/07/16 06:04:50;;;;;;;13.40;12.00;;;17.20;99.90;;;;;;4936968;29;20554;-78
2021/07/16 06:07:16;;;;;;;12.90;10.60;;;17.20;99.90;;;;;;4936809;29;20186;-78
2021/07/16 06:09:41;;;;;;;11.03;8.80;;;17.10;99.90;;;;;;4936415;29;20197;-78
2021/07/16 06:12:08;;;;;;;11.73;10.27;;;17.10;99.90;;;;;;4936791;29;20209;-78
2021/07/16 06:14:33;;;;;;;12.90;11.60;;;17.10;99.90;;;;;;4937154;29;20197;-78
2021/07/16 06:17:00;;;;;;;11.63;10.30;;;17.00;99.90;;;;;;4936689;29;20789;-78
2021/07/16 06:19:26;;;;;;;14.00;11.80;;;17.00;99.90;;;;;;4936397;29;20182;-79
2021/07/16 06:21:52;;;;;;;11.60;10.40;;;16.90;99.90;;;;;;4935968;29;20465;-79
2021/07/16 06:24:18;;;;;;;15.97;11.97;;;17.00;99.90;;;;;;4935102;29;20924;-78
2021/07/16 06:26:43;;;;;;;15.30;11.60;;;17.00;99.90;;;;;;4935735;29;20188;-78
2021/07/16 06:29:09;;;;;;;14.53;11.70;;;17.10;99.90;;;;;;4935369;29;20177;-78
2021/07/16 06:31:34;;;;;;;23.20;12.00;;;17.10;99.90;;;;;;4935094;29;20415;-78
2021/07/16 06:34:02;;;;;;;14.57;11.70;;;17.10;99.90;;;;;;4935095;29;20191;-78
2021/07/16 06:36:28;;;;;;;11.67;10.20;;;17.10;99.90;;;;;;4935224;29;20519;-78
2021/07/16 06:38:53;;;;;;;12.40;10.10;;;17.10;99.90;;;;;;4935010;29;20421;-78
2021/07/16 06:41:19;;;;;;;15.80;11.43;;;17.10;99.90;;;;;;4944387;28;20211;-78
2021/07/16 06:43:45;;;;;;;12.23;10.93;;;17.00;99.90;;;;;;4954769;29;20222;-77
2021/07/16 06:46:12;;;;;;;14.40;11.33;;;17.00;99.90;;;;;;4954120;29;20573;-78
2021/07/16 06:48:38;;;;;;;13.00;11.60;;;17.00;99.90;;;;;;4954167;29;20582;-77
2021/07/16 06:51:04;;;;;;;13.07;10.17;;;17.10;99.90;;;;;;4953633;28;21035;-77
2021/07/16 06:53:30;;;;;;;13.80;11.13;;;17.30;99.90;;;;;;4954232;28;20435;-78
2021/07/16 06:55:55;;;;;;;12.47;11.10;;;17.40;99.90;;;;;;4954720;29;20216;-78
2021/07/16 06:58:20;;;;;;;12.93;11.23;;;17.50;99.90;;;;;;4954551;29;20180;-78
2021/07/16 07:00:52;;;;;;;12.13;10.67;;;17.60;99.90;;;;;;4954287;28;20195;-78
2021/07/16 07:03:18;;;;;;;12.07;10.00;;;17.60;99.90;;;;;;4953527;28;20208;-77
2021/07/16 07:05:43;;;;;;;12.03;10.80;;;17.60;99.90;;;;;;4954387;29;20427;-77
2021/07/16 07:08:09;;;;;;;12.83;10.90;;;17.50;99.90;;;;;;4956971;28;20267;-77
2021/07/16 07:10:34;;;;;;;12.93;11.60;;;17.50;99.90;;;;;;4952549;28;20188;-77
2021/07/16 07:13:05;;;;;;;12.07;10.87;;;17.60;99.90;;;;;;4953673;29;20191;-78
2021/07/16 07:15:30;;;;;;;11.57;9.53;;;17.80;99.90;;;;;;4953254;28;20696;-77
2021/07/16 07:17:56;;;;;;;11.37;9.97;;;18.00;99.90;;;;;;4953715;28;20427;-78
2021/07/16 07:20:21;;;;;;;11.67;9.30;;;18.10;99.90;;;;;;4953488;28;20187;-75
2021/07/16 07:22:47;;;;;;;14.60;11.90;;;18.10;99.90;;;;;;4954164;28;20212;-79
2021/07/16 07:25:13;;;;;;;11.23;10.00;;;18.10;99.90;;;;;;4955821;29;20181;-79
2021/07/16 07:27:38;;;;;;;11.60;10.00;;;18.10;99.90;;;;;;4955803;28;20180;-79
2021/07/16 07:30:06;;;;;;;10.47;9.37;;;18.20;99.90;;;;;;4949221;29;20440;-79
2021/07/16 07:32:31;;;;;;;10.30;9.30;;;18.10;99.90;;;;;;4956019;28;20234;-78
2021/07/16 07:34:57;;;;;;;9.57;8.70;;;18.10;99.90;;;;;;4956360;28;20961;-80
2021/07/16 07:37:22;;;;;;;8.77;7.93;;;18.10;99.90;;;;;;4955259;29;20185;-77
2021/07/16 07:39:48;;;;;;;11.53;10.53;;;18.10;99.90;;;;;;4951541;28;20264;-78
2021/07/16 07:42:17;;;;;;;13.80;9.93;;;18.00;99.90;;;;;;4953536;28;20200;-78
2021/07/16 07:44:43;;;;;;;11.77;10.77;;;18.00;99.90;;;;;;4953655;29;20200;-78
2021/07/16 07:47:09;;;;;;;12.63;11.50;;;17.90;99.90;;;;;;4953589;28;20942;-78
2021/07/16 07:49:35;;;;;;;12.53;11.37;;;18.00;99.90;;;;;;4953801;28;20466;-78
2021/07/16 07:52:00;;;;;;;15.03;11.00;;;17.90;99.90;;;;;;4955626;28;20215;-77
2021/07/16 07:54:26;;;;;;;12.60;11.30;;;17.90;99.90;;;;;;4972086;28;20427;-76
2021/07/16 07:56:51;;;;;;;12.63;11.43;;;18.00;99.90;;;;;;4960110;28;20271;-77
2021/07/16 07:59:17;;;;;;;12.53;11.43;;;18.00;99.90;;;;;;4957839;29;20200;-75
2021/07/16 08:01:42;;;;;;;12.57;11.27;;;18.10;99.90;;;;;;4956654;29;20201;-76
2021/07/16 08:04:08;;;;;;;14.10;12.67;;;18.10;99.90;;;;;;4956957;29;20172;-77
2021/07/16 08:06:34;;;;;;;12.93;11.33;;;18.20;99.90;;;;;;4957179;29;20586;-77
2021/07/16 08:08:59;;;;;;;14.30;10.50;;;18.40;99.90;;;;;;4956013;29;20586;-71
2021/07/16 08:11:26;;;;;;;10.83;9.83;;;18.70;99.90;;;;;;4955333;28;20283;-73
2021/07/16 08:13:51;;;;;;;9.33;8.53;;;19.30;99.90;;;;;;4955826;29;20212;-71
2021/07/16 08:16:17;;;;;;;10.20;9.40;;;20.10;99.90;;;;;;4956131;29;20436;-73
2021/07/16 08:18:42;;;;;;;9.53;8.63;;;20.70;99.90;;;;;;4955959;29;20252;-73
2021/07/16 08:21:08;;;;;;;7.47;6.87;;;21.10;99.90;;;;;;4955646;28;20228;-73
2021/07/16 08:23:34;;;;;;;7.67;6.90;;;21.30;99.90;;;;;;4955543;29;20212;-70
2021/07/16 08:25:59;;;;;;;7.90;6.40;;;21.50;99.90;;;;;;4954524;29;20192;-78
2021/07/16 08:28:25;;;;;;;8.00;7.00;;;21.70;99.90;;;;;;4971728;28;20421;-73
2021/07/16 08:30:51;;;;;;;9.43;8.50;;;21.90;99.90;;;;;;4967592;28;20185;-72
2021/07/16 08:33:16;;;;;;;8.30;7.60;;;21.90;99.90;;;;;;4956024;29;20259;-73
2021/07/16 08:35:43;;;;;;;7.87;7.17;;;21.60;99.90;;;;;;4956455;28;20188;-73
2021/07/16 08:38:09;;;;;;;8.07;7.43;;;21.10;99.90;;;;;;4956365;29;20177;-74
2021/07/16 08:40:34;;;;;;;8.20;6.53;;;20.90;99.90;;;;;;4957275;28;20427;-73
2021/07/16 08:43:00;;;;;;;7.10;5.57;;;21.10;99.90;;;;;;4956135;28;20215;-72
2021/07/16 08:45:26;;;;;;;6.30;5.80;;;21.60;99.90;;;;;;4955956;29;20574;-73
2021/07/16 08:47:52;;;;;;;6.57;5.97;;;21.70;99.90;;;;;;4955282;28;20583;-73
2021/07/16 08:50:19;;;;;;;6.33;5.93;;;21.80;99.90;;;;;;4955708;28;20417;-73
2021/07/16 08:52:46;;;;;;;5.50;5.10;;;22.10;99.90;;;;;;4955092;28;20436;-72
2021/07/16 08:55:14;;;;;;;6.07;5.67;;;22.50;99.90;;;;;;4955470;28;20412;-72
2021/07/16 08:57:40;;;;;;;6.20;5.80;;;23.20;99.90;;;;;;4955032;29;20420;-73
2021/07/16 09:00:12;;;;;;;5.87;5.43;;;23.50;99.90;;;;;;4953551;28;20459;-75
2021/07/16 09:02:55;;;;;;;5.90;5.07;;;23.50;99.90;;;;;;4951732;28;20251;-75
2021/07/16 09:05:37;;;;;;;5.83;5.13;;;23.30;99.90;;;;;;4954555;28;20524;-74
2021/07/16 09:08:04;;;;;;;5.07;4.77;;;23.50;99.90;;;;;;4954465;28;20420;-73
2021/07/16 09:10:30;;;;;;;4.73;4.43;;;23.70;99.90;;;;;;4954573;29;20428;-77
2021/07/16 09:13:01;;;;;;;4.83;4.40;;;23.60;99.90;;;;;;4954680;28;20838;-74
2021/07/16 09:15:27;;;;;;;5.83;4.60;;;23.30;99.90;;;;;;4969465;28;20432;-74
2021/07/16 09:18:18;;;;;;;3.60;3.40;;;23.40;99.90;;;;;;4954517;29;20423;-76
2021/07/16 09:20:44;;;;;;;3.80;3.60;;;23.50;99.90;;;;;;4954027;28;20423;-74
2021/07/16 09:23:16;;;;;;;6.07;5.40;;;23.80;99.90;;;;;;4953431;28;20479;-73
2021/07/16 09:25:43;;;;;;;4.63;4.33;;;24.00;99.90;;;;;;4954509;28;20427;-73
2021/07/16 09:28:26;;;;;;;5.33;4.93;;;24.10;99.90;;;;;;4954013;29;20416;-74
2021/07/16 09:31:07;;;;;;;7.87;4.23;;;24.50;99.90;;;;;;4953968;28;20447;-77
2021/07/16 09:33:43;;;;;;;4.93;3.43;;;24.50;99.90;;;;;;4953894;28;20910;-76
2021/07/16 09:36:10;;;;;;;3.77;3.13;;;25.10;99.90;;;;;;4954121;28;20420;-74
2021/07/16 09:38:35;;;;;;;3.70;3.40;;;25.80;99.90;;;;;;4954198;28;20410;-73
2021/07/16 09:41:06;;;;;;;3.40;3.13;;;26.30;99.90;;;;;;4968765;28;20440;-74
2021/07/16 09:43:34;;;;;;;3.50;3.30;;;26.10;99.90;;;;;;4954304;28;20208;-77
2021/07/16 09:46:02;;;;;;;3.30;3.10;;;26.50;99.90;;;;;;4953952;28;20449;-74
2021/07/16 09:48:33;;;;;;;3.70;3.17;;;27.20;99.90;;;;;;4953738;28;20416;-77
2021/07/16 09:51:12;;;;;;;2.83;2.60;;;26.80;99.90;;;;;;4953804;28;20443;-75
2021/07/16 09:54:00;;;;;;;3.43;3.13;;;26.50;99.90;;;;;;4953790;28;20424;-74
2021/07/16 09:56:31;;;;;;;3.33;3.13;;;25.80;99.90;;;;;;4953989;29;20919;-75
2021/07/16 09:59:06;;;;;;;2.50;2.40;;;25.40;99.90;;;;;;4954053;28;20418;-73
2021/07/16 10:01:35;;;;;;;3.37;3.07;;;25.60;99.90;;;;;;4968782;28;20448;-73
2021/07/16 10:04:02;;;;;;;3.10;2.90;;;25.50;99.90;;;;;;4954615;28;20787;-75
2021/07/16 10:06:29;;;;;;;3.50;3.20;;;25.70;99.90;;;;;;4953853;28;20419;-74
2021/07/16 10:08:55;;;;;;;2.30;2.20;;;25.90;99.90;;;;;;4973090;28;20456;-74
2021/07/16 10:11:24;;;;;;;2.53;2.43;;;25.80;99.90;;;;;;4972326;28;20443;-77
2021/07/16 10:13:50;;;;;;;2.50;2.30;;;25.90;99.90;;;;;;4972371;28;20407;-78
2021/07/16 10:16:16;;;;;;;2.43;2.20;;;26.20;99.90;;;;;;4972665;28;20490;-74
2021/07/16 10:18:42;;;;;;;6.40;1.83;;;27.00;99.90;;;;;;4988018;28;20419;-78
2021/07/16 10:21:08;;;;;;;2.30;1.60;;;27.70;99.90;;;;;;4972441;28;20928;-74
2021/07/16 10:23:37;;;;;;;1.60;1.50;;;28.40;99.90;;;;;;4972380;28;20669;-74
2021/07/16 10:26:03;;;;;;;2.27;2.17;;;28.80;99.90;;;;;;4972608;28;20526;-74
2021/07/16 10:28:41;;;;;;;2.27;2.17;;;29.10;99.90;;;;;;4972466;28;20907;-75
2021/07/16 10:31:28;;;;;;;2.20;2.10;;;28.50;99.90;;;;;;4972131;28;20442;-76
2021/07/16 10:33:58;;;;;;;2.07;1.97;;;27.60;99.90;;;;;;4972236;28;20431;-76
2021/07/16 10:36:44;;;;;;;2.20;2.00;;;26.70;99.90;;;;;;4972460;28;20419;-73
2021/07/16 10:39:22;;;;;;;2.60;2.40;;;26.10;99.90;;;;;;4972012;28;20403;-73
2021/07/16 10:41:47;;;;;;;4.40;2.00;;;25.80;99.90;;;;;;4987239;28;20446;-75
2021/07/16 10:44:14;;;;;;;2.80;1.47;;;26.00;99.90;;;;;;4971762;28;20781;-75
2021/07/16 10:46:44;;;;;;;1.67;1.57;;;27.00;99.90;;;;;;4972437;28;20172;-73
2021/07/16 10:49:12;;;;;;;1.73;1.63;;;27.10;99.90;;;;;;4971966;28;20454;-74
2021/07/16 10:51:39;;;;;;;1.87;1.20;;;26.80;99.90;;;;;;4972429;28;20435;-74
2021/07/16 10:54:09;;;;;;;2.73;1.87;;;26.40;99.90;;;;;;4971824;28;20925;-73
2021/07/16 10:56:41;;;;;;;1.60;1.50;;;26.10;99.90;;;;;;4972278;28;20494;-74
2021/07/16 10:59:08;;;;;;;2.83;1.40;;;26.40;99.90;;;;;;4971941;28;20447;-73
2021/07/16 11:01:40;;;;;;;2.33;1.43;;;27.10;99.90;;;;;;4972323;28;20463;-74
2021/07/16 11:04:07;;;;;;;1.70;1.60;;;27.80;99.90;;;;;;4986603;28;20431;-74
2021/07/16 11:06:46;;;;;;;1.90;1.13;;;28.50;99.90;;;;;;4972051;28;20404;-72
2021/07/16 11:09:30;;;;;;;1.00;1.00;;;28.50;99.90;;;;;;4971847;28;20418;-75
2021/07/16 11:12:24;;;;;;;1.40;1.30;;;28.20;99.90;;;;;;4972232;28;20441;-76
2021/07/16 11:14:51;;;;;;;1.70;1.60;;;28.20;99.90;;;;;;4972398;28;20435;-78
2021/07/16 11:17:36;;;;;;;2.77;1.10;;;28.00;99.90;;;;;;4972385;28;20419;-77
2021/07/16 11:20:20;;;;;;;0.97;0.80;;;27.70;99.90;;;;;;4972513;28;20566;-75
2021/07/16 11:23:01;;;;;;;0.90;0.87;;;27.10;99.90;;;;;;4972020;28;20481;-75
2021/07/16 11:25:27;;;;;;;0.80;0.80;;;26.60;99.90;;;;;;4974537;28;20403;-75
2021/07/16 11:27:53;;;;;;;2.20;1.33;;;26.30;99.90;;;;;;4976790;28;20495;-77
2021/07/16 11:30:19;;;;;;;1.77;1.60;;;25.90;99.90;;;;;;4975893;28;21003;-76
2021/07/16 11:32:44;;;;;;;1.43;1.37;;;25.60;99.90;;;;;;4975718;28;20219;-75
2021/07/16 11:35:12;;;;;;;2.83;1.53;;;25.30;99.90;;;;;;4975775;28;20188;-76
2021/07/16 11:37:48;;;;;;;2.03;1.53;;;25.00;99.90;;;;;;4991350;28;20180;-77
2021/07/16 11:40:22;;;;;;;1.40;1.30;;;24.70;99.90;;;;;;4976208;28;20418;-76
2021/07/16 11:42:50;;;;;;;3.90;1.20;;;24.70;99.90;;;;;;4976023;28;20517;-77
2021/07/16 11:45:20;;;;;;;0.90;0.80;;;25.00;99.90;;;;;;4975756;28;20843;-78
2021/07/16 11:47:45;;;;;;;0.73;0.73;;;25.40;99.90;;;;;;4975847;28;20415;-76
2021/07/16 11:50:12;;;;;;;0.90;0.90;;;25.70;99.90;;;;;;4975665;28;20419;-77
2021/07/16 11:52:41;;;;;;;0.70;0.70;;;25.80;99.90;;;;;;4975721;28;20202;-76
2021/07/16 11:55:10;;;;;;;1.20;1.20;;;26.00;99.90;;;;;;4975563;28;20487;-77
2021/07/16 11:57:49;;;;;;;0.80;0.80;;;26.20;99.90;;;;;;4975808;28;20477;-76
2021/07/16 12:00:15;;;;;;;1.87;1.00;;;26.50;99.90;;;;;;4975267;28;20422;-75
2021/07/16 12:02:41;;;;;;;1.20;1.10;;;26.70;99.90;;;;;;4975400;28;20474;-77
2021/07/16 12:05:07;;;;;;;1.47;1.13;;;26.90;99.90;;;;;;4963239;28;20428;-77
2021/07/16 12:07:38;;;;;;;2.43;1.10;;;27.10;99.90;;;;;;4954070;28;20185;-78
2021/07/16 12:10:09;;;;;;;1.03;1.03;;;27.20;99.90;;;;;;4956266;29;20491;-78
2021/07/16 12:12:36;;;;;;;2.60;1.13;;;26.90;99.90;;;;;;4955880;28;20440;-78
2021/07/16 12:15:04;;;;;;;2.30;1.03;;;26.70;99.90;;;;;;4956268;29;20447;-78
2021/07/16 12:17:34;;;;;;;1.40;1.23;;;26.30;99.90;;;;;;4956348;29;20443;-76
2021/07/16 12:20:01;;;;;;;1.30;1.20;;;26.00;99.90;;;;;;4955788;29;20783;-77
2021/07/16 12:22:31;;;;;;;3.17;1.33;;;25.90;99.90;;;;;;4955766;29;20494;-77
2021/07/16 12:24:58;;;;;;;1.40;1.30;;;26.10;99.90;;;;;;4956746;29;20428;-77
2021/07/16 12:27:24;;;;;;;1.73;1.63;;;26.10;99.90;;;;;;4966313;29;20474;-77
2021/07/16 12:30:11;;;;;;;1.80;1.53;;;26.10;99.90;;;;;;4954868;29;20420;-78
2021/07/16 12:32:40;;;;;;;1.70;0.90;;;26.10;99.90;;;;;;4956094;28;20773;-77
2021/07/16 12:35:26;;;;;;;1.30;1.20;;;25.90;99.90;;;;;;4954064;28;20436;-78
2021/07/16 12:37:53;;;;;;;1.37;1.30;;;25.90;99.90;;;;;;4953751;28;20464;-77
2021/07/16 12:40:21;;;;;;;1.10;1.10;;;25.60;99.90;;;;;;4960531;28;20760;-78
2021/07/16 12:42:56;;;;;;;1.43;1.33;;;25.40;99.90;;;;;;4982045;28;20478;-78
2021/07/16 12:45:23;;;;;;;2.27;1.50;;;25.10;99.90;;;;;;4958495;28;20503;-78
2021/07/16 12:47:53;;;;;;;1.10;1.10;;;24.80;99.90;;;;;;4963944;28;20870;-77
2021/07/16 12:50:22;;;;;;;2.10;1.70;;;24.60;99.90;;;;;;4973113;28;20408;-77
2021/07/16 12:53:00;;;;;;;1.30;1.30;;;24.30;99.90;;;;;;4970364;28;20458;-77
2021/07/16 12:55:30;;;;;;;2.80;1.50;;;24.20;99.90;;;;;;4961325;28;21082;-75
2021/07/16 12:58:01;;;;;;;1.67;1.30;;;24.00;99.90;;;;;;4952509;28;20781;-78
2021/07/16 13:00:27;;;;;;;12.17;1.83;;;24.00;99.90;;;;;;4961524;28;20479;-78
2021/07/16 13:03:19;;;;;;;4.80;1.40;;;24.00;99.90;;;;;;4971581;28;20483;-77
2021/07/16 13:05:45;;;;;;;1.60;1.50;;;24.10;99.90;;;;;;4963116;28;20633;-78
2021/07/16 13:08:13;;;;;;;1.70;1.60;;;24.10;99.90;;;;;;4971987;28;20416;-77
2021/07/16 13:11:02;;;;;;;1.30;1.23;;;24.00;99.90;;;;;;4970260;28;20494;-78
2021/07/16 13:13:31;;;;;;;2.10;1.00;;;24.10;99.90;;;;;;4970031;28;20427;-77
2021/07/16 13:16:06;;;;;;;1.27;1.17;;;24.20;99.90;;;;;;4970145;28;20428;-78
2021/07/16 13:18:32;;;;;;;1.27;1.20;;;24.20;99.90;;;;;;4952195;28;20518;-78
2021/07/16 13:20:57;;;;;;;1.20;1.10;;;24.20;99.90;;;;;;4955967;28;20530;-77
2021/07/16 13:23:23;;;;;;;4.00;1.47;;;24.20;99.90;;;;;;4952941;28;20276;-77
2021/07/16 13:25:54;;;;;;;1.80;1.20;;;24.30;99.90;;;;;;4951880;28;20637;-78
2021/07/16 13:28:19;;;;;;;3.87;1.33;;;24.50;99.90;;;;;;4974203;28;20183;-77
2021/07/16 13:30:45;;;;;;;3.83;1.10;;;24.60;99.90;;;;;;4959836;28;20431;-78
2021/07/16 13:33:10;;;;;;;1.07;1.00;;;24.70;99.90;;;;;;4959732;28;20714;-78
2021/07/16 13:35:36;;;;;;;7.70;1.50;;;24.70;99.90;;;;;;4963735;28;20271;-78
2021/07/16 13:38:02;;;;;;;3.13;1.23;;;24.80;99.90;;;;;;4973775;28;20184;-77
2021/07/16 13:40:27;;;;;;;1.70;1.40;;;24.80;99.90;;;;;;4954796;28;20216;-78
2021/07/16 13:42:53;;;;;;;2.40;1.50;;;24.80;99.90;;;;;;4952157;28;20224;-78
2021/07/16 13:45:18;;;;;;;1.70;1.60;;;24.70;99.90;;;;;;4951853;28;20656;-76
2021/07/16 13:47:44;;;;;;;1.73;1.63;;;24.50;99.90;;;;;;4981931;28;20176;-77
2021/07/16 13:50:10;;;;;;;1.07;1.07;;;24.50;99.90;;;;;;4964002;28;20896;-77
2021/07/16 13:52:35;;;;;;;2.80;1.40;;;24.60;99.90;;;;;;4955016;28;20282;-76
2021/07/16 13:55:02;;;;;;;2.83;1.33;;;24.60;99.90;;;;;;4970150;28;20522;-76
2021/07/16 13:57:27;;;;;;;1.20;1.10;;;24.60;99.90;;;;;;4964207;28;20199;-77
2021/07/16 13:59:53;;;;;;;1.83;1.17;;;24.60;99.90;;;;;;4982545;28;20940;-77
2021/07/16 14:02:18;;;;;;;2.50;1.00;;;24.70;99.90;;;;;;4961606;28;20725;-73
2021/07/16 14:04:44;;;;;;;1.90;1.10;;;24.90;99.90;;;;;;4950219;28;20177;-72
2021/07/16 14:07:10;;;;;;;4.20;0.90;;;25.10;99.90;;;;;;4953938;28;20687;-73
2021/07/16 14:09:35;;;;;;;1.00;1.00;;;25.30;99.90;;;;;;4953862;29;20215;-73
2021/07/16 14:12:02;;;;;;;2.30;0.90;;;25.40;99.90;;;;;;4968576;28;20216;-77
2021/07/16 14:14:28;;;;;;;1.13;1.13;;;25.30;99.90;;;;;;4953421;29;20547;-77
2021/07/16 14:16:53;;;;;;;1.83;0.90;;;25.20;99.90;;;;;;4967301;28;20511;-75
2021/07/16 14:19:20;;;;;;;1.33;0.70;;;25.00;99.90;;;;;;4952047;28;20748;-75
2021/07/16 14:21:45;;;;;;;1.10;1.00;;;24.80;99.90;;;;;;4952176;28;20231;-72
2021/07/16 14:24:11;;;;;;;1.07;0.83;;;24.70;99.90;;;;;;4952017;28;20415;-77
2021/07/16 14:26:37;;;;;;;1.17;0.90;;;24.60;99.90;;;;;;4951606;28;20264;-73
2021/07/16 14:29:03;;;;;;;2.37;1.30;;;24.50;99.90;;;;;;4968860;28;20212;-74
2021/07/16 14:31:28;;;;;;;1.60;1.50;;;24.40;99.90;;;;;;4970391;28;20799;-74
2021/07/16 14:33:54;;;;;;;0.93;0.90;;;24.40;99.90;;;;;;4972754;28;20183;-73
2021/07/16 14:36:21;;;;;;;1.03;1.03;;;24.50;99.90;;;;;;4973218;28;20219;-74
2021/07/16 14:38:46;;;;;;;1.43;1.30;;;24.50;99.90;;;;;;4973015;28;20267;-78
2021/07/16 14:41:15;;;;;;;2.40;1.20;;;24.40;99.90;;;;;;4973076;28;21198;-74
2021/07/16 14:43:41;;;;;;;1.30;1.20;;;24.40;99.90;;;;;;4972458;28;20208;-74
2021/07/16 14:46:07;;;;;;;2.50;1.47;;;24.40;99.90;;;;;;4972685;28;20447;-76
2021/07/16 14:48:32;;;;;;;2.03;1.30;;;24.40;99.90;;;;;;4972545;28;20450;-73
2021/07/16 14:50:58;;;;;;;1.83;1.07;;;24.40;99.90;;;;;;4972608;28;20253;-74
2021/07/16 14:53:23;;;;;;;1.10;1.10;;;24.30;99.90;;;;;;4972690;28;20180;-75
2021/07/16 14:55:49;;;;;;;3.00;1.20;;;24.30;99.90;;;;;;4972755;28;20773;-75
2021/07/16 14:58:15;;;;;;;1.27;1.17;;;24.20;99.90;;;;;;4971966;28;20180;-76
2021/07/16 15:00:41;;;;;;;4.73;1.20;;;24.20;99.90;;;;;;4971727;28;20823;-73
2021/07/16 15:03:08;;;;;;;2.70;1.50;;;24.20;99.90;;;;;;4972055;28;20513;-75
2021/07/16 15:05:35;;;;;;;1.40;1.30;;;24.10;99.90;;;;;;4972232;28;20164;-76
2021/07/16 15:08:01;;;;;;;4.70;1.40;;;24.10;99.90;;;;;;4972108;28;20416;-74
2021/07/16 15:10:26;;;;;;;1.40;1.30;;;24.20;99.90;;;;;;4986969;28;20803;-74
2021/07/16 15:12:52;;;;;;;1.90;1.80;;;24.30;99.90;;;;;;4971885;28;20270;-75
2021/07/16 15:15:17;;;;;;;1.10;1.10;;;24.20;99.90;;;;;;4957156;28;20189;-72
2021/07/16 15:17:43;;;;;;;1.00;1.00;;;24.30;99.90;;;;;;4953005;29;20184;-73
2021/07/16 15:20:09;;;;;;;2.73;1.60;;;24.20;99.90;;;;;;4951303;29;20232;-74
2021/07/16 15:22:37;;;;;;;1.60;1.50;;;24.10;99.90;;;;;;4952903;29;20213;-74
2021/07/16 15:25:04;;;;;;;1.53;1.43;;;24.20;99.90;;;;;;4952743;29;20420;-74
2021/07/16 15:27:29;;;;;;;2.83;1.37;;;24.20;99.90;;;;;;4952844;29;20413;-76
2021/07/16 15:29:55;;;;;;;3.83;1.43;;;24.30;99.90;;;;;;4953044;29;20498;-74
2021/07/16 15:32:20;;;;;;;1.77;1.67;;;24.30;99.90;;;;;;4952794;29;20890;-74
2021/07/16 15:34:46;;;;;;;2.30;1.00;;;24.40;99.90;;;;;;4952733;29;20177;-76
2021/07/16 15:37:12;;;;;;;1.97;1.73;;;24.50;99.90;;;;;;4953136;29;20173;-74
2021/07/16 15:39:38;;;;;;;1.33;1.10;;;24.40;99.90;;;;;;4951351;29;20177;-73
2021/07/16 15:42:04;;;;;;;5.50;1.57;;;24.30;99.90;;;;;;4952507;29;20739;-75
2021/07/16 15:44:30;;;;;;;1.93;1.27;;;24.30;99.90;;;;;;4952646;29;20412;-76
2021/07/16 15:46:57;;;;;;;1.90;1.80;;;24.30;99.90;;;;;;4952795;29;20940;-77
2021/07/16 15:49:23;;;;;;;1.33;1.23;;;24.40;99.90;;;;;;4952845;29;20479;-74
2021/07/16 15:51:48;;;;;;;1.33;1.23;;;24.30;99.90;;;;;;4952965;29;20424;-74
2021/07/16 15:54:14;;;;;;;2.90;1.30;;;24.30;99.90;;;;;;4952583;29;20492;-75
2021/07/16 15:56:40;;;;;;;3.57;1.10;;;24.40;99.90;;;;;;4952074;29;20240;-73
2021/07/16 15:59:05;;;;;;;4.13;1.50;;;24.30;99.90;;;;;;4952941;29;20209;-76
2021/07/16 16:01:31;;;;;;;4.53;1.83;;;24.30;99.90;;;;;;4952017;28;20755;-73
2021/07/16 16:03:58;;;;;;;1.63;1.50;;;24.30;99.90;;;;;;4952618;29;20703;-72
2021/07/16 16:06:24;;;;;;;1.23;1.13;;;24.30;99.90;;;;;;4952826;29;20252;-75
2021/07/16 16:08:50;;;;;;;1.53;1.30;;;24.40;99.90;;;;;;4952814;29;20528;-75
2021/07/16 16:11:15;;;;;;;2.90;1.53;;;24.40;99.90;;;;;;4954299;28;20196;-76
2021/07/16 16:13:41;;;;;;;3.03;1.10;;;24.50;99.90;;;;;;4953804;28;20176;-73
2021/07/16 16:16:07;;;;;;;22.30;9.37;;;24.60;99.90;;;;;;4956121;28;20283;-73
2021/07/16 16:18:32;;;;;;;1.60;1.50;;;24.60;99.90;;;;;;4955117;28;20180;-74
2021/07/16 16:20:59;;;;;;;2.10;1.60;;;24.80;99.90;;;;;;4955459;28;20211;-78
2021/07/16 16:23:25;;;;;;;1.38;1.20;;;24.90;99.90;;;;;;4955402;29;20439;-74
2021/07/16 16:25:50;;;;;;;2.70;1.27;;;24.90;99.90;;;;;;4957198;29;20165;-76
2021/07/16 16:28:16;;;;;;;1.10;1.00;;;24.90;99.90;;;;;;4954375;29;20720;-75
2021/07/16 16:30:42;;;;;;;2.07;1.97;;;24.80;99.90;;;;;;4955716;29;20196;-75
2021/07/16 16:33:07;;;;;;;5.17;1.30;;;24.80;99.90;;;;;;4956476;29;20185;-76
2021/07/16 16:35:33;;;;;;;6.10;5.57;;;24.80;99.90;;;;;;4956722;29;20180;-77
2021/07/16 16:37:59;;;;;;;4.27;3.30;;;24.70;99.90;;;;;;4956152;29;20180;-76
2021/07/16 16:40:25;;;;;;;3.37;1.90;;;24.60;99.90;;;;;;4955919;29;20213;-75
2021/07/16 16:42:50;;;;;;;1.50;1.40;;;24.60;99.90;;;;;;4955764;29;20562;-73
2021/07/16 16:45:18;;;;;;;1.63;1.20;;;24.50;99.90;;;;;;4955534;29;20180;-75
2021/07/16 16:47:44;;;;;;;2.07;1.10;;;24.40;99.90;;;;;;4955000;28;20228;-75
2021/07/16 16:50:11;;;;;;;1.10;1.10;;;24.30;99.90;;;;;;4954470;29;20471;-77
2021/07/16 16:52:37;;;;;;;3.30;1.40;;;24.20;99.90;;;;;;4955541;28;20838;-73
2021/07/16 16:55:05;;;;;;;1.20;1.10;;;24.30;99.90;;;;;;4955349;28;20857;-75
2021/07/16 16:57:31;;;;;;;2.23;1.00;;;24.20;99.90;;;;;;4970300;28;20458;-75
2021/07/16 16:59:56;;;;;;;0.87;0.87;;;24.20;99.90;;;;;;4955192;28;20861;-74
2021/07/16 17:02:22;;;;;;;1.13;1.10;;;24.20;99.90;;;;;;4955217;28;20732;-75
2021/07/16 17:04:48;;;;;;;3.43;1.90;;;24.10;99.90;;;;;;4955558;28;20173;-75
2021/07/16 17:07:13;;;;;;;1.27;1.17;;;24.20;99.90;;;;;;4968026;28;20236;-74
2021/07/16 17:09:39;;;;;;;4.07;1.60;;;24.20;99.90;;;;;;4955226;29;20203;-73
2021/07/16 17:12:04;;;;;;;1.40;1.30;;;24.00;99.90;;;;;;4951584;28;20196;-75
2021/07/16 17:14:30;;;;;;;1.40;1.10;;;24.00;99.90;;;;;;4952649;28;20180;-73
2021/07/16 17:16:55;;;;;;;1.50;1.30;;;23.90;99.90;;;;;;4953472;28;20541;-75